createdAt,value
2017-10-16T00:00:23.039Z,10.20
2017-10-16T00:02:50.501Z,10.10
2017-10-16T00:05:18.115Z,10.10
2017-10-16T00:07:45.562Z,10.00
2017-10-16T00:10:13.018Z,10.00
2017-10-16T00:12:40.472Z,10.00
2017-10-16T00:15:07.925Z,9.90
2017-10-16T00:17:36.223Z,9.80
2017-10-16T00:20:03.675Z,9.80
2017-10-16T00:22:31.175Z,9.80
2017-10-16T00:24:58.627Z,9.80
2017-10-16T00:27:26.120Z,9.80
2017-10-16T00:29:54.336Z,9.80
2017-10-16T00:32:21.781Z,9.70
2017-10-16T00:34:49.250Z,9.70
2017-10-16T00:37:16.698Z,9.70
2017-10-16T00:39:44.145Z,9.70
2017-10-16T00:42:11.589Z,9.60
2017-10-16T00:44:39.037Z,9.60
2017-10-16T00:47:07.259Z,9.50
2017-10-16T00:49:34.712Z,9.50
2017-10-16T00:52:02.259Z,9.50
2017-10-16T00:54:29.857Z,9.50
2017-10-16T00:56:57.383Z,9.60
2017-10-16T00:59:24.825Z,9.60
2017-10-16T01:01:52.274Z,9.70
2017-10-16T01:04:19.727Z,9.60
2017-10-16T01:06:47.179Z,9.70
2017-10-16T01:09:15.410Z,9.80
2017-10-16T01:11:42.881Z,9.80
2017-10-16T01:14:10.353Z,9.80
2017-10-16T01:16:37.856Z,9.70
2017-10-16T01:19:05.349Z,9.60
2017-10-16T01:21:32.925Z,9.60
2017-10-16T01:24:00.394Z,9.60
2017-10-16T01:26:28.623Z,9.50
2017-10-16T01:28:56.100Z,9.50
2017-10-16T01:31:23.667Z,9.50
2017-10-16T01:33:51.222Z,9.40
2017-10-16T01:36:18.682Z,9.40
2017-10-16T01:38:46.137Z,9.30
2017-10-16T01:41:13.713Z,9.30
2017-10-16T01:43:41.253Z,9.30
2017-10-16T01:46:08.776Z,9.20
2017-10-16T01:48:36.335Z,9.10
2017-10-16T01:51:03.896Z,9.10
2017-10-16T01:53:31.392Z,9.10
2017-10-16T01:55:58.847Z,9.00
2017-10-16T01:58:26.298Z,9.00
2017-10-16T02:00:53.753Z,9.00
2017-10-16T02:03:21.210Z,9.00
2017-10-16T02:05:48.675Z,9.00
2017-10-16T02:08:16.197Z,9.10
2017-10-16T02:10:43.704Z,9.10
2017-10-16T02:13:11.250Z,9.20
2017-10-16T02:15:38.877Z,9.10
2017-10-16T02:18:06.375Z,9.10
2017-10-16T02:20:33.817Z,9.10
2017-10-16T02:23:01.278Z,9.00
2017-10-16T02:25:28.739Z,9.00
2017-10-16T02:27:56.370Z,9.10
2017-10-16T02:30:23.815Z,9.10
2017-10-16T02:32:51.283Z,9.00
2017-10-16T02:35:18.735Z,9.00
2017-10-16T02:37:46.236Z,9.00
2017-10-16T02:40:13.687Z,9.00
2017-10-16T02:42:41.154Z,8.90
2017-10-16T02:45:08.596Z,8.90
2017-10-16T02:47:36.088Z,8.90
2017-10-16T02:50:03.539Z,8.90
2017-10-16T02:52:31.046Z,8.80
2017-10-16T02:54:58.495Z,8.80
2017-10-16T02:57:26.002Z,8.80
2017-10-16T02:59:53.458Z,8.80
2017-10-16T03:02:20.922Z,8.80
2017-10-16T03:04:48.470Z,8.80
2017-10-16T03:07:15.957Z,8.80
2017-10-16T03:09:43.413Z,8.80
2017-10-16T03:12:10.891Z,8.80
2017-10-16T03:14:39.134Z,8.90
2017-10-16T03:17:06.694Z,8.80
2017-10-16T03:19:34.166Z,8.90
2017-10-16T03:22:01.631Z,8.90
2017-10-16T03:24:29.882Z,8.90
2017-10-16T03:26:57.335Z,8.90
2017-10-16T03:29:24.795Z,8.90
2017-10-16T03:31:52.250Z,8.90
2017-10-16T03:34:19.882Z,8.90
2017-10-16T03:36:47.379Z,8.90
2017-10-16T03:39:14.835Z,8.90
2017-10-16T03:41:42.285Z,8.80
2017-10-16T03:44:09.846Z,8.90
2017-10-16T03:46:38.389Z,8.90
2017-10-16T03:49:05.830Z,8.90
2017-10-16T03:51:33.288Z,8.80
2017-10-16T03:54:01.530Z,8.70
2017-10-16T03:56:29.090Z,8.80
2017-10-16T03:58:56.549Z,8.80
2017-10-16T04:01:24.019Z,8.80
2017-10-16T04:03:52.245Z,8.70
2017-10-16T04:06:19.787Z,8.70
2017-10-16T04:08:47.349Z,8.70
2017-10-16T04:11:14.858Z,8.70
2017-10-16T04:13:42.326Z,8.70
2017-10-16T04:16:10.646Z,8.70
2017-10-16T04:18:38.102Z,8.70
2017-10-16T04:21:05.591Z,8.60
2017-10-16T04:23:33.037Z,8.60
2017-10-16T04:26:00.486Z,8.60
2017-10-16T04:28:28.040Z,8.60
2017-10-16T04:30:55.505Z,8.60
2017-10-16T04:33:22.977Z,8.60
2017-10-16T04:35:50.423Z,8.50
2017-10-16T04:38:17.870Z,8.50
2017-10-16T04:40:45.341Z,8.40
2017-10-16T04:43:12.819Z,8.50
2017-10-16T04:45:40.371Z,8.50
2017-10-16T04:48:07.820Z,8.40
2017-10-16T04:50:35.274Z,8.40
2017-10-16T04:53:02.737Z,8.40
2017-10-16T04:55:30.266Z,8.40
2017-10-16T04:57:57.701Z,8.30
2017-10-16T05:00:25.177Z,8.30
2017-10-16T05:02:52.679Z,8.30
2017-10-16T05:05:20.234Z,8.30
2017-10-16T05:07:47.792Z,8.30
2017-10-16T05:10:15.260Z,8.30
2017-10-16T05:12:42.730Z,8.30
2017-10-16T05:15:10.194Z,8.20
2017-10-16T05:17:38.505Z,8.20
2017-10-16T05:20:05.960Z,8.20
2017-10-16T05:22:33.474Z,8.20
2017-10-16T05:25:00.924Z,8.10
2017-10-16T05:27:28.378Z,8.10
2017-10-16T05:29:55.934Z,8.10
2017-10-16T05:32:23.383Z,8.10
2017-10-16T05:34:50.850Z,8.00
2017-10-16T05:37:18.307Z,8.10
2017-10-16T05:39:45.760Z,8.10
2017-10-16T05:42:14.729Z,8.10
2017-10-16T05:44:42.275Z,8.00
2017-10-16T05:47:09.732Z,8.10
2017-10-16T05:49:37.178Z,8.10
2017-10-16T05:52:04.694Z,8.10
2017-10-16T05:54:32.246Z,8.10
2017-10-16T05:56:59.718Z,8.20
2017-10-16T05:59:27.171Z,8.30
2017-10-16T06:01:54.706Z,8.30
2017-10-16T06:04:22.210Z,8.30
2017-10-16T06:06:49.738Z,8.40
2017-10-16T06:09:17.185Z,8.50
2017-10-16T06:11:44.638Z,8.50
2017-10-16T06:14:12.113Z,8.60
2017-10-16T06:16:39.574Z,8.90
2017-10-16T06:19:07.131Z,9.40
2017-10-16T06:21:34.703Z,9.90
2017-10-16T06:24:02.309Z,10.30
2017-10-16T06:26:29.755Z,10.60
2017-10-16T06:28:57.237Z,11.00
2017-10-16T06:31:24.694Z,11.30
2017-10-16T06:33:52.173Z,11.60
2017-10-16T06:36:19.640Z,11.80
2017-10-16T06:38:47.115Z,12.20
2017-10-16T06:41:15.347Z,12.50
2017-10-16T06:43:42.927Z,12.40
2017-10-16T06:46:10.486Z,12.20
2017-10-16T06:48:37.969Z,12.00
2017-10-16T06:51:06.215Z,11.60
2017-10-16T06:53:33.665Z,11.60
2017-10-16T06:56:01.142Z,11.40
2017-10-16T06:58:28.611Z,11.40
2017-10-16T07:00:56.163Z,11.30
2017-10-16T07:03:23.634Z,11.30
2017-10-16T07:05:51.886Z,11.40
2017-10-16T07:08:19.354Z,11.30
2017-10-16T07:10:46.900Z,11.40
2017-10-16T07:13:14.353Z,11.50
2017-10-16T07:15:41.817Z,11.60
2017-10-16T07:18:10.806Z,12.00
2017-10-16T07:20:38.260Z,12.00
2017-10-16T07:23:05.919Z,12.30
2017-10-16T07:25:33.484Z,12.50
2017-10-16T07:28:00.993Z,12.60
2017-10-16T07:30:28.519Z,12.70
2017-10-16T07:32:55.966Z,12.90
2017-10-16T07:35:23.448Z,13.10
2017-10-16T07:37:51.675Z,13.40
2017-10-16T07:40:19.142Z,13.40
2017-10-16T07:42:46.613Z,13.60
2017-10-16T07:45:14.063Z,13.80
2017-10-16T07:47:41.518Z,13.90
2017-10-16T07:50:08.995Z,14.10
2017-10-16T07:52:36.543Z,14.30
2017-10-16T07:55:04.021Z,14.40
2017-10-16T07:57:32.251Z,14.70
2017-10-16T07:59:59.728Z,14.70
2017-10-16T08:02:27.201Z,14.90
2017-10-16T08:04:55.435Z,15.30
2017-10-16T08:07:22.899Z,15.20
2017-10-16T08:09:50.360Z,15.40
2017-10-16T08:12:17.847Z,15.60
2017-10-16T08:14:45.346Z,15.70
2017-10-16T08:17:12.811Z,15.90
2017-10-16T08:19:40.297Z,16.10
2017-10-16T08:22:07.750Z,16.20
2017-10-16T08:24:35.226Z,16.40
2017-10-16T08:27:02.687Z,16.50
2017-10-16T08:29:30.162Z,16.70
2017-10-16T08:31:58.408Z,17.00
2017-10-16T08:34:25.870Z,17.00
2017-10-16T08:36:53.432Z,17.20
2017-10-16T08:39:20.891Z,17.40
2017-10-16T08:41:48.450Z,17.60
2017-10-16T08:44:15.909Z,17.80
2017-10-16T08:46:43.375Z,18.00
2017-10-16T08:49:10.834Z,18.20
2017-10-16T08:51:38.311Z,18.30
2017-10-16T08:54:06.616Z,18.70
2017-10-16T08:56:34.066Z,18.70
2017-10-16T08:59:01.573Z,18.90
2017-10-16T09:01:29.037Z,19.10
2017-10-16T09:03:56.518Z,19.40
2017-10-16T09:06:24.755Z,19.60
2017-10-16T09:08:52.227Z,19.60
2017-10-16T09:11:19.692Z,19.70
2017-10-16T09:13:47.921Z,19.80
2017-10-16T09:16:15.406Z,19.80
2017-10-16T09:18:42.862Z,19.90
2017-10-16T09:21:10.429Z,19.90
2017-10-16T09:23:37.991Z,19.90
2017-10-16T09:26:05.458Z,19.90
2017-10-16T09:28:32.915Z,20.00
2017-10-16T09:31:00.372Z,20.20
2017-10-16T09:33:27.930Z,20.30
2017-10-16T09:35:56.158Z,20.40
2017-10-16T09:38:23.602Z,20.60
2017-10-16T09:40:51.049Z,20.60
2017-10-16T09:43:18.522Z,20.70
2017-10-16T09:45:45.967Z,20.80
2017-10-16T09:48:13.430Z,20.90
2017-10-16T09:50:40.950Z,21.00
2017-10-16T09:53:08.404Z,21.00
2017-10-16T09:55:35.947Z,21.20
2017-10-16T09:58:03.427Z,21.20
2017-10-16T10:00:31.686Z,21.40
2017-10-16T10:02:59.141Z,21.30
2017-10-16T10:05:26.595Z,21.40
2017-10-16T10:07:54.056Z,21.50
2017-10-16T10:10:21.507Z,21.60
2017-10-16T10:12:49.076Z,21.60
2017-10-16T10:15:17.412Z,21.70
2017-10-16T10:17:44.908Z,21.70
2017-10-16T10:20:12.358Z,21.80
2017-10-16T10:22:39.813Z,21.80
2017-10-16T10:25:07.286Z,21.80
2017-10-16T10:27:34.903Z,21.90
2017-10-16T10:30:02.349Z,21.90
2017-10-16T10:32:29.801Z,21.90
2017-10-16T10:34:57.376Z,21.80
2017-10-16T10:37:24.870Z,21.90
2017-10-16T10:39:52.430Z,21.90
2017-10-16T10:42:19.891Z,22.00
2017-10-16T10:44:47.352Z,21.80
2017-10-16T10:47:14.801Z,21.90
2017-10-16T10:49:42.266Z,22.00
2017-10-16T10:52:10.490Z,22.10
2017-10-16T10:54:37.971Z,22.10
2017-10-16T10:57:05.443Z,22.00
2017-10-16T10:59:32.916Z,22.10
2017-10-16T11:02:00.470Z,22.20
2017-10-16T11:04:27.989Z,22.20
2017-10-16T11:06:55.433Z,22.20
2017-10-16T11:09:23.190Z,22.00
2017-10-16T11:11:50.642Z,22.00
2017-10-16T11:14:18.118Z,22.10
2017-10-16T11:16:45.572Z,22.10
2017-10-16T11:19:13.094Z,22.20
2017-10-16T11:21:40.551Z,22.20
2017-10-16T11:24:08.002Z,22.30
2017-10-16T11:26:35.596Z,22.30
2017-10-16T11:29:03.055Z,22.40
2017-10-16T11:31:30.508Z,22.40
2017-10-16T11:33:57.979Z,22.40
2017-10-16T11:36:25.435Z,22.40
2017-10-16T11:38:52.900Z,22.50
2017-10-16T11:41:20.414Z,22.50
2017-10-16T11:43:48.643Z,22.50
2017-10-16T11:46:16.196Z,22.50
2017-10-16T11:48:43.684Z,22.60
2017-10-16T11:51:11.138Z,22.70
2017-10-16T11:53:38.709Z,22.70
2017-10-16T11:56:06.225Z,22.70
2017-10-16T11:58:33.678Z,22.80
2017-10-16T12:01:01.190Z,22.80
2017-10-16T12:03:28.642Z,22.80
2017-10-16T12:05:56.123Z,22.80
2017-10-16T12:08:24.350Z,22.70
2017-10-16T12:10:51.823Z,22.70
2017-10-16T12:13:19.290Z,22.80
2017-10-16T12:15:46.856Z,22.90
2017-10-16T12:18:14.302Z,22.90
2017-10-16T12:20:41.931Z,23.00
2017-10-16T12:23:09.375Z,23.00
2017-10-16T12:25:36.841Z,23.10
2017-10-16T12:28:04.345Z,23.00
2017-10-16T12:30:31.798Z,22.90
2017-10-16T12:33:00.806Z,22.90
2017-10-16T12:35:28.351Z,22.90
2017-10-16T12:37:55.819Z,23.00
2017-10-16T12:40:23.274Z,23.10
2017-10-16T12:42:50.739Z,23.10
2017-10-16T12:45:18.976Z,23.00
2017-10-16T12:47:46.442Z,23.00
2017-10-16T12:50:13.971Z,23.00
2017-10-16T12:52:41.450Z,22.90
2017-10-16T12:55:08.923Z,22.90
2017-10-16T12:57:36.387Z,23.00
2017-10-16T13:00:03.942Z,23.00
2017-10-16T13:02:31.504Z,23.00
2017-10-16T13:05:10.679Z,23.00
2017-10-16T13:07:38.140Z,23.00
2017-10-16T13:10:05.750Z,23.00
2017-10-16T13:12:33.314Z,23.00
2017-10-16T13:15:00.765Z,22.90
2017-10-16T13:17:28.222Z,22.80
2017-10-16T13:19:55.747Z,22.80
2017-10-16T13:22:23.203Z,22.80
2017-10-16T13:24:50.661Z,22.80
2017-10-16T13:27:18.121Z,22.80
2017-10-16T13:29:45.626Z,22.70
2017-10-16T13:32:13.183Z,22.70
2017-10-16T13:34:41.518Z,22.70
2017-10-16T13:37:08.979Z,22.70
2017-10-16T13:39:36.443Z,22.70
2017-10-16T13:42:03.923Z,22.70
2017-10-16T13:44:31.486Z,22.70
2017-10-16T13:46:59.007Z,22.80
2017-10-16T13:49:26.489Z,22.80
2017-10-16T13:51:54.118Z,22.70
2017-10-16T13:54:21.685Z,22.70
2017-10-16T13:56:49.135Z,22.70
2017-10-16T13:59:16.599Z,22.70
2017-10-16T14:01:44.090Z,22.80
2017-10-16T14:04:11.662Z,22.80
2017-10-16T14:06:41.530Z,22.70
2017-10-16T14:09:09.034Z,22.70
2017-10-16T14:11:36.495Z,22.80
2017-10-16T14:14:04.020Z,22.90
2017-10-16T14:16:31.505Z,22.90
2017-10-16T14:18:59.067Z,22.90
2017-10-16T14:21:26.535Z,22.90
2017-10-16T14:23:54.791Z,22.70
2017-10-16T14:26:22.519Z,22.70
2017-10-16T14:28:50.019Z,22.60
2017-10-16T14:31:17.488Z,22.60
2017-10-16T14:33:45.853Z,22.60
2017-10-16T14:36:13.326Z,22.60
2017-10-16T14:38:41.684Z,22.40
2017-10-16T14:41:09.267Z,22.40
2017-10-16T14:43:36.733Z,22.40
2017-10-16T14:46:05.207Z,22.30
2017-10-16T14:48:32.759Z,22.30
2017-10-16T14:51:00.432Z,22.20
2017-10-16T14:53:28.664Z,22.10
2017-10-16T14:55:56.152Z,22.00
2017-10-16T14:58:23.631Z,21.90
2017-10-16T15:00:51.871Z,21.80
2017-10-16T15:03:19.441Z,21.80
2017-10-16T15:05:47.881Z,21.70
2017-10-16T15:08:15.339Z,21.70
2017-10-16T15:10:42.897Z,21.70
2017-10-16T15:13:10.630Z,21.70
2017-10-16T15:15:39.141Z,21.50
2017-10-16T15:18:06.609Z,21.40
2017-10-16T15:20:34.206Z,21.40
2017-10-16T15:23:01.771Z,21.30
2017-10-16T15:25:29.378Z,21.20
2017-10-16T15:27:56.882Z,21.10
2017-10-16T15:30:24.455Z,21.10
2017-10-16T15:32:52.158Z,21.00
2017-10-16T15:35:19.760Z,20.80
2017-10-16T15:37:47.231Z,20.80
2017-10-16T15:40:14.789Z,20.90
2017-10-16T15:42:42.329Z,20.80
2017-10-16T15:45:09.811Z,20.70
2017-10-16T15:47:37.352Z,20.60
2017-10-16T15:50:04.872Z,20.40
2017-10-16T15:52:32.423Z,20.30
2017-10-16T15:54:59.989Z,20.10
2017-10-16T15:57:27.449Z,20.00
2017-10-16T15:59:54.911Z,19.80
2017-10-16T16:02:22.402Z,19.70
2017-10-16T16:04:49.963Z,19.50
2017-10-16T16:07:17.581Z,19.30
2017-10-16T16:09:45.084Z,19.10
2017-10-16T16:12:12.555Z,19.00
2017-10-16T16:14:40.774Z,18.90
2017-10-16T16:17:08.231Z,18.90
2017-10-16T16:19:35.696Z,18.80
2017-10-16T16:22:03.159Z,18.80
2017-10-16T16:24:30.711Z,18.70
2017-10-16T16:26:58.178Z,18.60
2017-10-16T16:29:25.660Z,18.40
2017-10-16T16:31:53.124Z,18.30
2017-10-16T16:34:20.586Z,18.20
2017-10-16T16:36:48.037Z,18.10
2017-10-16T16:39:15.512Z,18.00
2017-10-16T16:41:43.747Z,18.10
2017-10-16T16:44:11.282Z,18.00
2017-10-16T16:46:38.847Z,17.90
2017-10-16T16:49:06.308Z,17.80
2017-10-16T16:51:33.768Z,17.80
2017-10-16T16:54:01.236Z,17.60
2017-10-16T16:56:28.713Z,17.50
2017-10-16T16:58:56.224Z,17.30
2017-10-16T17:01:23.690Z,17.20
2017-10-16T17:03:51.160Z,17.00
2017-10-16T17:06:18.619Z,16.80
2017-10-16T17:08:46.086Z,16.60
2017-10-16T17:11:13.553Z,16.40
2017-10-16T17:13:41.043Z,16.30
2017-10-16T17:16:09.287Z,16.00
2017-10-16T17:18:36.758Z,15.90
2017-10-16T17:21:04.334Z,15.80
2017-10-16T17:23:31.795Z,15.70
2017-10-16T17:26:00.052Z,15.30
2017-10-16T17:28:27.664Z,15.30
2017-10-16T17:30:55.127Z,15.20
2017-10-16T17:33:22.601Z,15.10
2017-10-16T17:35:50.081Z,15.00
2017-10-16T17:38:17.547Z,14.90
2017-10-16T17:40:45.872Z,14.70
2017-10-16T17:43:13.334Z,14.60
2017-10-16T17:45:40.811Z,14.60
2017-10-16T17:48:08.387Z,14.50
2017-10-16T17:50:35.875Z,14.40
2017-10-16T17:53:04.109Z,14.20
2017-10-16T17:55:32.206Z,14.20
2017-10-16T17:57:59.749Z,14.20
2017-10-16T18:00:27.221Z,14.10
2017-10-16T18:02:55.482Z,14.00
2017-10-16T18:05:23.077Z,13.90
2017-10-16T18:07:51.315Z,13.90
2017-10-16T18:10:18.905Z,13.90
2017-10-16T18:12:47.176Z,13.80
2017-10-16T18:15:15.501Z,13.70
2017-10-16T18:17:43.061Z,13.70
2017-10-16T18:20:10.593Z,13.70
2017-10-16T18:22:38.841Z,13.60
2017-10-16T18:25:06.327Z,13.50
2017-10-16T18:27:34.631Z,13.40
2017-10-16T18:30:02.131Z,13.40
2017-10-16T18:32:29.591Z,13.30
2017-10-16T18:34:57.067Z,13.30
2017-10-16T18:37:25.330Z,13.20
2017-10-16T18:39:52.887Z,13.20
2017-10-16T18:42:20.350Z,13.20
2017-10-16T18:44:48.584Z,13.20
2017-10-16T18:47:16.075Z,13.20
2017-10-16T18:49:43.539Z,13.20
2017-10-16T18:52:11.031Z,13.20
2017-10-16T18:54:38.516Z,13.10
2017-10-16T18:57:05.978Z,13.10
2017-10-16T18:59:33.465Z,13.10
2017-10-16T19:02:01.010Z,13.10
2017-10-16T19:04:28.476Z,13.00
2017-10-16T19:06:56.035Z,13.00
2017-10-16T19:09:23.515Z,13.00
2017-10-16T19:11:51.016Z,12.90
2017-10-16T19:14:18.590Z,12.80
2017-10-16T19:16:46.046Z,12.70
2017-10-16T19:19:13.517Z,12.70
2017-10-16T19:21:40.982Z,12.60
2017-10-16T19:24:08.470Z,12.60
2017-10-16T19:26:36.712Z,12.40
2017-10-16T19:29:04.191Z,12.40
2017-10-16T19:31:31.648Z,12.40
2017-10-16T19:33:59.878Z,12.40
2017-10-16T19:36:27.363Z,12.40
2017-10-16T19:38:54.832Z,12.30
2017-10-16T19:41:22.390Z,12.30
2017-10-16T19:43:49.854Z,12.30
2017-10-16T19:46:17.354Z,12.30
2017-10-16T19:48:44.880Z,12.20
2017-10-16T19:51:13.113Z,12.10
2017-10-16T19:53:40.600Z,12.10
2017-10-16T19:56:08.319Z,12.10
2017-10-16T19:58:35.885Z,12.00
2017-10-16T20:01:03.514Z,12.00
2017-10-16T20:03:32.328Z,11.80
2017-10-16T20:06:00.020Z,11.80
2017-10-16T20:08:27.593Z,11.80
2017-10-16T20:10:55.175Z,11.70
2017-10-16T20:13:22.762Z,11.70
2017-10-16T20:15:50.332Z,11.70
2017-10-16T20:18:17.786Z,11.70
2017-10-16T20:20:45.332Z,11.70
2017-10-16T20:23:13.710Z,11.60
2017-10-16T20:25:41.200Z,11.60
2017-10-16T20:28:08.690Z,11.60
2017-10-16T20:30:36.243Z,11.50
2017-10-16T20:33:03.710Z,11.50
2017-10-16T20:35:31.188Z,11.40
2017-10-16T20:37:59.417Z,11.30
2017-10-16T20:40:26.889Z,11.30
2017-10-16T20:42:54.369Z,11.30
2017-10-16T20:45:22.706Z,11.20
2017-10-16T20:47:50.191Z,11.10
2017-10-16T20:50:17.735Z,11.10
2017-10-16T20:52:45.236Z,11.10
2017-10-16T20:55:13.499Z,11.00
2017-10-16T20:57:41.813Z,11.00
2017-10-16T21:00:09.430Z,11.00
2017-10-16T21:02:36.932Z,11.00
2017-10-16T21:05:04.434Z,11.10
2017-10-16T21:07:31.894Z,11.10
2017-10-16T21:09:59.456Z,11.00
2017-10-16T21:12:26.933Z,11.00
2017-10-16T21:14:55.186Z,10.90
2017-10-16T21:17:22.654Z,10.90
2017-10-16T21:19:51.233Z,10.70
2017-10-16T21:22:18.802Z,10.70
2017-10-16T21:24:47.078Z,10.70
2017-10-16T21:27:15.346Z,10.70
2017-10-16T21:29:42.806Z,10.70
2017-10-16T21:32:10.271Z,10.70
2017-10-16T21:34:38.584Z,10.60
2017-10-16T21:37:06.038Z,10.50
2017-10-16T21:39:33.505Z,10.50
2017-10-16T21:42:01.101Z,10.50
2017-10-16T21:44:28.718Z,10.40
2017-10-16T21:46:56.194Z,10.50
2017-10-16T21:49:23.661Z,10.50
2017-10-16T21:51:51.146Z,10.40
2017-10-16T21:54:18.717Z,10.40
2017-10-16T21:56:46.946Z,10.30
2017-10-16T21:59:14.435Z,10.30
2017-10-16T22:01:41.977Z,10.20
2017-10-16T22:04:09.557Z,10.20
2017-10-16T22:06:37.162Z,10.10
2017-10-16T22:09:04.674Z,10.10
2017-10-16T22:11:32.135Z,10.10
2017-10-16T22:13:59.608Z,10.10
2017-10-16T22:16:27.830Z,10.00
2017-10-16T22:18:55.370Z,10.00
2017-10-16T22:21:22.930Z,10.00
2017-10-16T22:23:50.402Z,9.80
2017-10-16T22:26:17.888Z,9.80
2017-10-16T22:28:45.350Z,9.80
2017-10-16T22:31:12.808Z,9.70
2017-10-16T22:33:40.274Z,9.60
2017-10-16T22:36:07.813Z,9.60
2017-10-16T22:38:35.291Z,9.60
2017-10-16T22:41:02.853Z,9.60
2017-10-16T22:43:30.357Z,9.60
2017-10-16T22:45:58.546Z,9.60
2017-10-16T22:48:26.043Z,9.60
2017-10-16T22:50:54.291Z,9.50
2017-10-16T22:53:21.764Z,9.50
2017-10-16T22:55:49.331Z,9.40
2017-10-16T22:58:17.204Z,9.40
2017-10-16T23:00:45.451Z,9.30
2017-10-16T23:03:12.930Z,9.30
2017-10-16T23:05:40.396Z,9.30
2017-10-16T23:08:08.647Z,9.20
2017-10-16T23:10:36.101Z,9.20
2017-10-16T23:13:03.570Z,9.20
2017-10-16T23:15:31.138Z,9.10
2017-10-16T23:17:58.595Z,9.10
2017-10-16T23:20:26.151Z,9.00
2017-10-16T23:22:53.617Z,9.00
2017-10-16T23:25:21.071Z,9.00
2017-10-16T23:27:48.543Z,9.00
2017-10-16T23:30:16.089Z,9.00
2017-10-16T23:32:45.140Z,9.00
2017-10-16T23:35:12.593Z,9.00
2017-10-16T23:37:40.061Z,9.00
2017-10-16T23:40:26.221Z,9.10
2017-10-16T23:42:54.450Z,9.10
2017-10-16T23:45:21.918Z,9.10
2017-10-16T23:47:49.373Z,9.10
2017-10-16T23:50:16.902Z,9.10
2017-10-16T23:52:44.405Z,9.20
2017-10-16T23:55:11.845Z,9.10
2017-10-16T23:57:39.313Z,9.10
